| Date | Time | Temp. (oF) | Dew Point (oF) | Rel. Hum. (%) | Press. (in.) | Wind Dir. | Wind Speed (mph) | Hourly Rainfall (in.) |
|
|---|---|---|---|---|---|---|---|---|---|
| 1 | 05/08 | 00:00 | 72 | 51 | 48 | 29.69 | S | 13 | 0.00 |
| 2 | 05/07 | 23:00 | 72 | 51 | 48 | 29.71 | S | 7 | 0.00 |
| 3 | 05/07 | 22:00 | 72 | 49 | 45 | 29.72 | SE | 6 | 0.00 |
| 4 | 05/07 | 21:00 | 72 | 48 | 43 | 29.73 | S | 11 | 0.00 |
| 5 | 05/07 | 20:00 | 74 | 45 | 37 | 29.73 | S | 9 | 0.00 |
| 6 | 05/07 | 19:00 | 76 | 44 | 33 | 29.74 | SSW | 6 | 0.00 |
| 7 | 05/07 | 18:00 | 79 | 45 | 31 | 29.72 | SE | 8 | 0.00 |
| 8 | 05/07 | 17:00 | 80 | 45 | 30 | 29.74 | S | 8 | 0.00 |
| 9 | 05/07 | 16:00 | 83 | 43 | 25 | 29.75 | SSE | 7 | 0.00 |
| 10 | 05/07 | 15:00 | 82 | 43 | 26 | 29.81 | SW | 12 | 0.00 |
| 11 | 05/07 | 14:00 | 81 | 44 | 28 | 29.85 | W | 4 | 0.00 |
| 12 | 05/07 | 13:00 | 81 | 47 | 31 | 29.88 | SSE | 5 | 0.00 |
| 13 | 05/07 | 12:00 | 79 | 50 | 38 | 29.91 | SW | 0 | 0.00 |
| 14 | 05/07 | 11:00 | 75 | 50 | 43 | 29.94 | NNW | 0 | 0.00 |
| 15 | 05/07 | 10:00 | 74 | 54 | 51 | 29.95 | S | 0 | 0.00 |
| 16 | 05/07 | 09:00 | 70 | 56 | 62 | 29.97 | S | 0 | 0.00 |
| 17 | 05/07 | 08:00 | 59 | 55 | 89 | 29.99 | S | 0 | 0.00 |
| 18 | 05/07 | 07:00 | 47 | 46 | 99 | 29.98 | S | 0 | 0.00 |
| 19 | 05/07 | 06:00 | 46 | 44 | 96 | 29.96 | S | 0 | 0.00 |
| 20 | 05/07 | 05:00 | 48 | 46 | 95 | 29.95 | S | 0 | 0.00 |
| 21 | 05/07 | 04:00 | 48 | 46 | 93 | 29.94 | S | 0 | 0.00 |
| 22 | 05/07 | 03:00 | 50 | 46 | 87 | 29.95 | ENE | 2 | 0.00 |
| 23 | 05/07 | 02:00 | 54 | 47 | 80 | 29.96 | NNE | 2 | 0.00 |
| 24 | 05/07 | 01:00 | 52 | 47 | 84 | 29.96 | SW | 0 | 0.00 |